Hill Air Force Base
KHIF : now visible

Airfield :











YOU CAN JOIN US ON...

 
LOGIN :

Register | Disclaimer

   EN    FR    IT 

 









Legend :    VFR   Marginal VFR   IFR   Intensive IFR   Very Intensive IFR
Visi :
Ceiling :
>= 8 km
>= 3000ft
5 to 8 km
1000 to 3000 ft
1500m to 5 km
500 to 1000 ft
800 to 1500m
200 to 500 ft
< 800m
< 200 ft
Symbols :   Thunderstorms  Fog  Heavy snow  Heavy precipitations  Wind > 20 kt






- Airport Elevation : 4789 ft


KHIF - Hill Air Force Base

CURRENT METAR :
  • 291358Z 29004KT 1/4SM R14/1200V1600FT FZFG SCT060 M02/M02 A3014 RMK AO2A SNE25 SLP214 P0000 T10251025

EXPIRED METARs :
  • 291340Z 31004KT 1/4SM R14/1200V2400FT FZFG FEW020 FEW034 OVC070 M02/M02 A3014 RMK AO2A SNE25 SLP214
  • 291325Z 34004KT 3/4SM R14/3500VP6000FT BR FEW000 SCT020 BKN060 OVC075 M01/M01 A3014 RMK AO2A VIS 5/8V1 1/2 SNE25 SLP211
  • 291308Z 33004KT 1 3/8SM -SN BR BKN001 BKN020 OVC055 00/00 A3013 RMK AO2A VIS 3/8V1 3/8 SLP207
  • 291258Z 33004KT 3/8SM R14/2200V2600FT -SN FZFG VV001 00/00 A3013 RMK AO2A SLP207 P0000 T10031003
  • 291247Z 34005KT 1/2SM R14/2800V4000FT SN FZFG VV001 00/00 A3013 RMK AO2A SLP207
  • 291158Z 34007KT 1/2SM R14/2200V2600FT SN FZFG FEW002 OVC007 00/00 A3012 RMK AO2A SLP204 P0003 60016 70018 T10031003 10027 21003 51008
  • 291131Z 34008KT 3/4SM R14/2800VP6000FT -SN BR SCT002 OVC009 00/00 A3011 RMK AO2A CIG 002V009 CIG 005 RWY32 SLP200
  • 291108Z 34012KT 1SM R14/5500VP6000FT -SN BR SCT002 OVC006 00/00 A3010 RMK AO2A CIG 005 RWY32 SLP197

TAF AMD TAF KHIF
Valid from the 29 at 09:00 until the 30 at 12:00 UTC


290904Z 2909/3012 32009KT 0400 SN FG BKN002 630029 QNH3008INS
TEMPO 2909/2914 28020G30KT 1600 -SN BR BKN005 630059 520003
BECMG 2913/2914 34009KT 9999 NSW BKN040 620404 QNH3010INS
BECMG 3000/3001 27012KT 9999 BKN040 620403 QNH3018INS TX01/2909Z TNM01/2911Z



MET'MAP, your aeronautical weather chart ! - Copyright ORBIFLY December 2007 - Disclaimer

ORBIFLY MET'MAP TEAM :

Programming & Development : Alexandra Zaïnal
Concept & original design : Baudouin d'Aumeries
Assistance for programming : Marc-Olivier Méhu
Technical & hardware support : Manuel Goepfert

Contact : metmap@orbifly.com




SOURCES & CREDITS :

   NOAA       Earth
Advisory